Time;durP1;ratioP1;P1;durP2;ratioP2;P2;SDS_P1;SDS_P2;PMS_P1;PMS_P2;Temp;Humidity;BMP_temperature;BMP_pressure;BME280_temperature;BME280_humidity;BME280_pressure;Samples;Min_cycle;Max_cycle;Signal;HPM_P1;HPM_P2
2023/11/20 00:03:02;;;;;;;5.10;3.00;;;11.60;99.90;;;;;;10310486;28;20219;-79
2023/11/20 00:08:23;;;;;;;7.87;3.30;;;11.60;99.90;;;;;;10298931;28;20604;-79
2023/11/20 00:13:45;;;;;;;9.60;3.53;;;11.60;99.90;;;;;;10306707;28;20199;-80
2023/11/20 00:19:10;;;;;;;12.30;3.90;;;11.60;99.90;;;;;;10298657;28;20372;-79
2023/11/20 00:24:30;;;;;;;11.70;4.87;;;11.60;99.90;;;;;;10301914;28;20192;-79
2023/11/20 00:29:52;;;;;;;9.10;4.10;;;11.60;99.90;;;;;;10301206;28;20772;-80
2023/11/20 00:35:16;;;;;;;5.40;3.00;;;11.60;99.90;;;;;;10275009;28;20196;-79
2023/11/20 00:40:36;;;;;;;9.13;3.73;;;11.50;99.90;;;;;;10277583;28;20252;-79
2023/11/20 00:45:58;;;;;;;8.77;3.50;;;11.50;99.90;;;;;;10269349;28;20229;-79
2023/11/20 00:51:18;;;;;;;6.47;3.50;;;11.50;99.90;;;;;;10274423;28;20200;-78
2023/11/20 00:56:39;;;;;;;11.80;3.40;;;11.40;99.90;;;;;;10277928;28;20220;-80
2023/11/20 01:02:01;;;;;;;7.00;3.10;;;11.40;99.90;;;;;;10268962;28;20657;-80
2023/11/20 01:07:22;;;;;;;13.80;3.40;;;11.40;99.90;;;;;;10265347;28;20224;-79
2023/11/20 01:12:42;;;;;;;5.77;3.10;;;11.30;99.90;;;;;;10271492;28;20196;-79
2023/11/20 01:18:04;;;;;;;12.93;4.13;;;11.30;99.90;;;;;;10305222;28;20472;-79
2023/11/20 01:23:25;;;;;;;12.50;3.60;;;11.20;99.90;;;;;;10276407;28;20208;-78
2023/11/20 01:28:46;;;;;;;9.20;3.03;;;11.20;99.90;;;;;;10287469;28;20227;-79
2023/11/20 01:34:08;;;;;;;6.33;3.40;;;11.20;99.90;;;;;;10283784;28;20199;-78
2023/11/20 01:39:28;;;;;;;12.53;4.10;;;11.20;99.90;;;;;;10278292;28;20298;-79
2023/11/20 01:44:49;;;;;;;7.33;3.47;;;11.30;99.90;;;;;;10296867;28;20196;-78
2023/11/20 01:50:12;;;;;;;8.10;3.13;;;11.40;99.90;;;;;;10287474;28;20249;-80
2023/11/20 01:55:33;;;;;;;8.13;3.10;;;11.50;99.90;;;;;;10290417;28;20215;-79
2023/11/20 02:00:55;;;;;;;7.83;3.30;;;11.60;99.90;;;;;;10276911;28;20227;-79
2023/11/20 02:06:17;;;;;;;11.20;3.90;;;11.60;99.90;;;;;;10287126;28;20231;-77
2023/11/20 02:11:37;;;;;;;8.60;4.30;;;11.60;99.90;;;;;;10302916;28;20199;-79
2023/11/20 02:16:58;;;;;;;12.47;3.67;;;11.60;99.90;;;;;;10309795;28;20215;-79
2023/11/20 02:22:20;;;;;;;8.80;3.10;;;11.60;99.90;;;;;;10282902;28;20200;-79
2023/11/20 02:27:50;;;;;;;7.17;3.13;;;11.60;99.90;;;;;;10298177;28;20220;-79
2023/11/20 02:33:12;;;;;;;6.13;3.03;;;11.60;99.90;;;;;;10308653;28;20195;-79
2023/11/20 02:38:33;;;;;;;7.33;3.23;;;11.60;99.90;;;;;;10278267;28;20591;-80
2023/11/20 02:43:55;;;;;;;10.30;3.77;;;11.60;99.90;;;;;;10301836;28;20203;-79
2023/11/20 02:49:17;;;;;;;8.67;3.17;;;11.60;99.90;;;;;;10279209;28;20239;-79
2023/11/20 02:54:38;;;;;;;5.10;2.83;;;11.60;99.90;;;;;;10281114;28;20633;-79
2023/11/20 02:59:58;;;;;;;5.80;3.10;;;11.60;99.90;;;;;;10293939;28;20208;-80
2023/11/20 03:05:20;;;;;;;7.47;3.20;;;11.60;99.90;;;;;;10302118;28;20270;-79
2023/11/20 03:10:40;;;;;;;7.00;3.60;;;11.60;99.90;;;;;;10294069;28;20701;-79
2023/11/20 03:16:02;;;;;;;4.73;3.50;;;11.70;99.90;;;;;;10285843;28;20192;-79
2023/11/20 03:21:24;;;;;;;5.43;3.23;;;11.70;99.90;;;;;;10277541;28;20196;-80
2023/11/20 03:26:44;;;;;;;8.53;3.47;;;11.70;99.90;;;;;;10296967;28;20647;-79
2023/11/20 03:32:05;;;;;;;5.73;3.27;;;11.70;99.90;;;;;;10292098;28;20199;-79
2023/11/20 03:37:27;;;;;;;9.37;3.10;;;11.70;99.90;;;;;;10289946;28;20227;-79
2023/11/20 03:42:48;;;;;;;3.80;3.40;;;11.70;99.90;;;;;;10293130;28;20204;-79
2023/11/20 03:48:08;;;;;;;12.53;4.50;;;11.70;99.90;;;;;;10279388;28;20302;-80
2023/11/20 03:53:30;;;;;;;6.90;3.27;;;11.80;99.90;;;;;;10280579;28;20200;-79
2023/11/20 03:58:51;;;;;;;9.93;3.67;;;11.90;99.90;;;;;;10282371;28;20219;-78
2023/11/20 04:04:11;;;;;;;5.40;3.30;;;11.90;99.90;;;;;;10289120;28;20207;-79
2023/11/20 04:09:33;;;;;;;11.70;4.07;;;11.90;99.90;;;;;;10298152;28;20223;-80
2023/11/20 04:14:54;;;;;;;7.20;3.07;;;12.00;99.90;;;;;;10305463;28;20199;-79
2023/11/20 04:20:15;;;;;;;5.40;3.10;;;12.00;99.90;;;;;;10301643;28;20219;-79
2023/11/20 04:25:36;;;;;;;7.50;3.20;;;11.90;99.90;;;;;;10294250;28;20224;-80
2023/11/20 04:30:58;;;;;;;4.37;2.53;;;11.90;99.90;;;;;;10278828;28;20458;-79
2023/11/20 04:36:19;;;;;;;7.33;4.20;;;11.90;99.90;;;;;;10296064;28;20199;-78
2023/11/20 04:41:41;;;;;;;7.57;3.97;;;11.90;99.90;;;;;;10310238;28;20893;-80
2023/11/20 04:47:01;;;;;;;7.57;4.10;;;11.80;99.90;;;;;;10302025;28;20227;-79
2023/11/20 04:52:21;;;;;;;7.20;3.97;;;11.80;99.90;;;;;;10293378;28;20640;-78
2023/11/20 04:57:44;;;;;;;7.07;3.60;;;11.80;99.90;;;;;;10317930;28;20212;-79
2023/11/20 05:03:04;;;;;;;8.60;3.73;;;11.80;99.90;;;;;;10303407;28;20203;-80
2023/11/20 05:08:25;;;;;;;8.40;3.30;;;11.80;99.90;;;;;;10284454;28;20597;-80
2023/11/20 05:13:47;;;;;;;12.90;4.30;;;11.90;99.90;;;;;;10298506;28;20635;-79
2023/11/20 05:19:07;;;;;;;8.40;4.10;;;11.90;99.90;;;;;;10298927;28;20227;-80
2023/11/20 05:24:28;;;;;;;5.53;3.57;;;11.90;99.90;;;;;;10293467;28;20207;-81
2023/11/20 05:29:50;;;;;;;6.00;2.90;;;11.90;99.90;;;;;;10302581;28;20223;-81
2023/11/20 05:35:11;;;;;;;5.50;2.70;;;11.80;99.90;;;;;;10308031;28;20195;-81
2023/11/20 05:40:32;;;;;;;8.97;4.17;;;11.90;99.90;;;;;;10310266;28;20223;-80
2023/11/20 05:45:54;;;;;;;11.30;5.77;;;11.80;99.90;;;;;;10304352;28;20207;-78
2023/11/20 05:51:18;;;;;;;7.67;4.33;;;11.90;99.90;;;;;;10306338;28;20203;-79
2023/11/20 05:56:39;;;;;;;8.47;4.50;;;11.90;99.90;;;;;;10299385;28;20235;-80
2023/11/20 06:02:01;;;;;;;9.27;4.80;;;11.90;99.90;;;;;;10289272;28;20203;-80
2023/11/20 06:07:22;;;;;;;7.47;4.07;;;11.80;99.90;;;;;;10297708;28;20220;-79
2023/11/20 06:12:43;;;;;;;6.47;3.87;;;11.80;99.90;;;;;;10290696;28;20596;-80
2023/11/20 06:18:05;;;;;;;2.90;2.60;;;11.80;99.90;;;;;;10296863;28;20493;-80
2023/11/20 06:23:26;;;;;;;6.87;2.40;;;11.80;99.90;;;;;;10300488;28;20200;-79
2023/11/20 06:28:46;;;;;;;4.70;3.30;;;11.90;99.90;;;;;;10296427;28;20626;-80
2023/11/20 06:34:09;;;;;;;6.87;3.10;;;11.90;99.90;;;;;;10296005;28;20200;-79
2023/11/20 06:39:30;;;;;;;11.10;3.30;;;11.90;99.90;;;;;;10288474;28;20231;-79
2023/11/20 06:44:50;;;;;;;6.87;3.00;;;11.90;99.90;;;;;;10309266;28;20675;-80
2023/11/20 06:50:13;;;;;;;8.67;3.03;;;11.90;99.90;;;;;;10302565;28;20224;-79
2023/11/20 06:55:33;;;;;;;5.47;3.00;;;12.00;99.90;;;;;;10279414;28;20203;-79
2023/11/20 07:00:54;;;;;;;5.80;3.57;;;12.10;99.90;;;;;;10293788;28;20580;-77
2023/11/20 07:06:17;;;;;;;9.43;3.30;;;12.10;99.90;;;;;;10293931;28;20601;-79
2023/11/20 07:11:37;;;;;;;7.33;2.80;;;12.20;99.90;;;;;;10294707;28;20203;-82
2023/11/20 07:16:58;;;;;;;6.00;3.00;;;12.20;99.90;;;;;;10326154;23;20232;-76
2023/11/20 07:22:20;;;;;;;7.00;3.00;;;12.20;99.90;;;;;;10317231;28;20207;-75
2023/11/20 07:27:40;;;;;;;10.40;3.60;;;12.20;99.90;;;;;;10298672;28;20784;-76
2023/11/20 07:33:01;;;;;;;6.30;2.50;;;12.30;99.90;;;;;;10321286;28;20206;-76
2023/11/20 07:38:23;;;;;;;7.20;2.50;;;12.30;99.90;;;;;;10324676;28;20297;-77
2023/11/20 07:43:44;;;;;;;5.47;3.07;;;12.40;99.90;;;;;;10323679;28;20203;-76
2023/11/20 07:49:04;;;;;;;6.20;2.83;;;12.40;99.90;;;;;;10330586;28;20247;-76
2023/11/20 07:54:27;;;;;;;8.70;3.03;;;12.40;99.90;;;;;;10333339;28;20664;-76
2023/11/20 07:59:47;;;;;;;7.27;2.17;;;12.40;99.90;;;;;;10328991;28;20215;-76
2023/11/20 08:05:09;;;;;;;6.40;2.87;;;12.50;99.90;;;;;;10328538;28;20195;-76
2023/11/20 08:10:31;;;;;;;5.90;2.87;;;12.50;99.90;;;;;;10326468;28;20211;-76
2023/11/20 08:15:51;;;;;;;3.70;2.70;;;12.60;99.90;;;;;;10343509;28;20698;-76
2023/11/20 08:21:12;;;;;;;6.13;2.83;;;12.60;99.90;;;;;;10341577;28;20229;-76
2023/11/20 08:26:34;;;;;;;6.80;2.73;;;12.50;99.90;;;;;;10335066;28;20213;-76
2023/11/20 08:31:54;;;;;;;8.30;3.30;;;12.60;99.90;;;;;;10341427;28;20564;-77
2023/11/20 08:37:15;;;;;;;6.80;3.23;;;12.50;99.90;;;;;;10339375;28;20222;-77
2023/11/20 08:42:37;;;;;;;7.67;3.63;;;12.60;99.90;;;;;;10338481;28;20570;-77
2023/11/20 08:47:57;;;;;;;9.60;3.10;;;12.70;99.90;;;;;;10336964;28;20314;-77
2023/11/20 08:53:18;;;;;;;6.83;2.70;;;12.70;99.90;;;;;;10336423;28;20199;-77
2023/11/20 08:58:40;;;;;;;4.40;2.80;;;12.70;99.90;;;;;;10335489;28;20298;-77
2023/11/20 09:04:01;;;;;;;8.87;2.80;;;12.70;99.90;;;;;;10331006;28;20199;-77
2023/11/20 09:09:22;;;;;;;4.93;2.23;;;12.70;99.90;;;;;;10311539;28;20284;-77
2023/11/20 09:14:44;;;;;;;4.70;2.30;;;12.70;99.90;;;;;;10341582;28;20203;-77
2023/11/20 09:20:06;;;;;;;5.53;2.80;;;12.60;99.90;;;;;;10341343;28;20227;-77
2023/11/20 09:25:28;;;;;;;8.80;3.60;;;12.60;99.90;;;;;;10340482;28;20271;-77
2023/11/20 09:30:50;;;;;;;5.50;2.70;;;12.60;99.90;;;;;;10314120;28;20231;-77
2023/11/20 09:36:11;;;;;;;7.37;2.80;;;12.60;99.90;;;;;;10333370;28;20211;-77
2023/11/20 09:41:39;;;;;;;7.20;2.73;;;12.60;99.90;;;;;;10336424;28;20227;-77
2023/11/20 09:47:03;;;;;;;10.10;2.60;;;12.60;99.90;;;;;;10336487;28;20226;-77
2023/11/20 09:52:25;;;;;;;3.50;2.20;;;12.60;99.90;;;;;;10337226;28;20626;-77
2023/11/20 09:57:46;;;;;;;6.87;2.10;;;12.60;99.90;;;;;;10339651;28;20266;-77
2023/11/20 10:03:09;;;;;;;4.13;2.00;;;12.70;99.90;;;;;;10324407;28;20248;-78
2023/11/20 10:08:31;;;;;;;3.77;2.70;;;12.70;99.90;;;;;;10330196;28;20298;-78
2023/11/20 10:13:52;;;;;;;2.70;2.20;;;12.70;99.90;;;;;;10343683;28;20211;-77
2023/11/20 10:19:14;;;;;;;3.83;2.30;;;12.80;99.90;;;;;;10344212;28;20222;-78
2023/11/20 10:24:38;;;;;;;2.87;2.10;;;12.80;99.90;;;;;;10341684;28;20705;-78
2023/11/20 10:29:59;;;;;;;7.50;2.73;;;12.90;99.90;;;;;;10343638;28;20618;-77
2023/11/20 10:35:22;;;;;;;8.03;2.60;;;13.10;99.90;;;;;;10341495;28;20203;-77
2023/11/20 10:40:44;;;;;;;3.10;2.00;;;13.10;99.90;;;;;;10326884;28;20235;-77
2023/11/20 10:46:05;;;;;;;5.03;2.87;;;13.00;99.90;;;;;;10322642;28;20698;-77
2023/11/20 10:51:29;;;;;;;10.80;2.73;;;12.90;99.90;;;;;;10316766;28;20215;-77
2023/11/20 10:56:52;;;;;;;7.80;2.73;;;12.90;99.90;;;;;;10335898;28;20199;-77
2023/11/20 11:02:19;;;;;;;5.70;2.90;;;12.90;99.90;;;;;;10320273;28;20199;-78
2023/11/20 11:07:42;;;;;;;5.57;2.90;;;12.80;99.90;;;;;;10332186;28;20230;-78
2023/11/20 11:13:04;;;;;;;6.33;3.10;;;12.70;99.90;;;;;;10321668;28;20241;-78
2023/11/20 11:18:29;;;;;;;6.50;4.77;;;12.40;99.90;;;;;;10311878;28;20569;-77
2023/11/20 11:23:54;;;;;;;6.77;3.60;;;12.10;99.90;;;;;;10334285;28;20199;-77
2023/11/20 11:29:18;;;;;;;10.80;4.10;;;12.10;99.90;;;;;;10326177;28;20595;-78
2023/11/20 11:35:01;;;;;;;4.87;3.40;;;12.10;99.90;;;;;;10341857;28;20206;-78
2023/11/20 11:40:37;;;;;;;3.53;3.17;;;12.20;99.90;;;;;;10329345;28;20214;-77
2023/11/20 11:46:02;;;;;;;2.60;2.30;;;12.30;99.90;;;;;;10332719;28;20203;-77
2023/11/20 11:51:28;;;;;;;3.53;2.20;;;12.30;99.90;;;;;;10332090;28;20708;-77
2023/11/20 11:56:59;;;;;;;3.90;1.80;;;12.30;99.90;;;;;;10318212;28;20282;-77
2023/11/20 12:02:56;;;;;;;1.67;1.57;;;12.30;99.90;;;;;;10341345;28;20203;-77
2023/11/20 12:08:17;;;;;;;2.53;1.53;;;12.30;99.90;;;;;;10308329;28;20222;-77
2023/11/20 12:14:05;;;;;;;2.00;1.80;;;12.30;99.90;;;;;;10324845;28;20203;-77
2023/11/20 12:19:26;;;;;;;2.23;1.63;;;12.20;99.90;;;;;;10330259;28;20651;-77
2023/11/20 12:24:46;;;;;;;2.30;1.77;;;12.30;99.90;;;;;;10331397;28;20578;-77
2023/11/20 12:30:10;;;;;;;3.00;2.00;;;12.40;99.90;;;;;;10341211;28;20641;-77
2023/11/20 12:35:31;;;;;;;2.87;2.13;;;12.50;99.90;;;;;;10322899;28;20319;-78
2023/11/20 12:40:54;;;;;;;3.77;2.10;;;12.60;99.90;;;;;;10337749;28;20483;-77
2023/11/20 12:46:19;;;;;;;3.03;1.50;;;12.70;99.90;;;;;;10355078;28;20278;-77
2023/11/20 12:51:42;;;;;;;2.00;1.80;;;12.70;99.90;;;;;;10343285;28;20223;-77
2023/11/20 12:57:02;;;;;;;5.67;2.50;;;12.70;99.90;;;;;;10358343;28;20191;-77
2023/11/20 13:02:25;;;;;;;3.87;2.50;;;12.50;99.90;;;;;;10352880;28;20202;-77
2023/11/20 13:07:46;;;;;;;2.53;2.33;;;12.50;99.90;;;;;;10341658;28;20223;-78
2023/11/20 13:13:07;;;;;;;3.87;2.63;;;12.50;99.90;;;;;;10327897;28;20740;-78
2023/11/20 13:18:29;;;;;;;6.20;2.90;;;12.50;99.90;;;;;;10353299;23;20254;-79
2023/11/20 13:23:59;;;;;;;3.40;2.83;;;12.50;99.90;;;;;;10344515;28;20195;-78
2023/11/20 13:29:20;;;;;;;2.60;2.37;;;12.50;99.90;;;;;;10336363;28;20264;-80
2023/11/20 13:34:42;;;;;;;7.60;3.20;;;12.60;99.90;;;;;;10333997;28;20242;-79
2023/11/20 13:40:05;;;;;;;2.33;2.23;;;12.50;99.90;;;;;;10328422;28;20704;-79
2023/11/20 13:45:26;;;;;;;3.77;2.57;;;12.50;99.90;;;;;;10337375;28;20662;-78
2023/11/20 13:50:48;;;;;;;4.00;1.90;;;12.50;99.90;;;;;;10349054;28;20242;-80
2023/11/20 13:56:09;;;;;;;4.27;2.73;;;12.50;99.90;;;;;;10337159;28;20207;-80
2023/11/20 14:01:29;;;;;;;4.60;1.67;;;12.60;99.90;;;;;;10340773;28;20215;-78
2023/11/20 14:06:51;;;;;;;2.53;2.00;;;12.60;99.90;;;;;;10336759;28;20199;-78
2023/11/20 14:12:12;;;;;;;2.10;1.90;;;12.70;99.90;;;;;;10335609;28;20234;-79
2023/11/20 14:17:32;;;;;;;2.77;2.33;;;12.70;99.90;;;;;;10335571;28;20198;-79
2023/11/20 14:22:55;;;;;;;1.80;1.70;;;12.80;99.90;;;;;;10340100;28;20191;-80
2023/11/20 14:28:15;;;;;;;4.30;1.87;;;12.80;99.90;;;;;;10338489;28;20239;-81
2023/11/20 14:33:36;;;;;;;2.17;1.80;;;12.90;99.90;;;;;;10334087;28;20211;-81
2023/11/20 14:38:58;;;;;;;1.83;1.60;;;13.00;99.90;;;;;;10335066;28;20207;-81
2023/11/20 14:44:18;;;;;;;2.10;1.50;;;13.00;99.90;;;;;;10341206;28;20241;-79
2023/11/20 14:49:39;;;;;;;2.03;1.67;;;13.00;99.90;;;;;;10329612;28;20223;-80
2023/11/20 14:55:01;;;;;;;3.03;2.30;;;13.00;99.90;;;;;;10344001;28;20286;-79
2023/11/20 15:00:24;;;;;;;2.40;1.70;;;12.90;99.90;;;;;;10338757;28;20219;-78
2023/11/20 15:05:46;;;;;;;2.80;1.83;;;12.80;99.90;;;;;;10336288;28;20234;-76
2023/11/20 15:11:09;;;;;;;3.43;1.60;;;12.60;99.90;;;;;;10334592;28;20238;-79
2023/11/20 15:16:30;;;;;;;1.60;1.50;;;12.50;99.90;;;;;;10331343;28;20203;-79
2023/11/20 15:21:50;;;;;;;1.23;1.10;;;12.30;99.90;;;;;;10307756;28;20251;-76
2023/11/20 15:27:12;;;;;;;1.93;1.50;;;12.20;99.90;;;;;;10304367;28;20203;-78
2023/11/20 15:32:33;;;;;;;4.53;1.73;;;12.10;99.90;;;;;;10341524;28;20207;-78
2023/11/20 15:37:53;;;;;;;1.80;1.70;;;12.10;99.90;;;;;;10334015;28;20219;-79
2023/11/20 15:43:16;;;;;;;6.20;3.73;;;12.00;99.90;;;;;;10339626;28;20274;-78
2023/11/20 15:48:36;;;;;;;7.00;4.80;;;11.90;99.90;;;;;;10327795;28;20243;-79
2023/11/20 15:53:57;;;;;;;5.47;2.90;;;11.80;99.90;;;;;;10331758;28;20199;-79
2023/11/20 15:59:20;;;;;;;6.07;3.30;;;11.70;99.90;;;;;;10335058;28;20230;-78
2023/11/20 16:04:41;;;;;;;5.60;3.20;;;11.70;99.90;;;;;;10334618;28;20680;-78
2023/11/20 16:10:01;;;;;;;2.93;2.73;;;11.60;99.90;;;;;;10327518;28;20219;-78
2023/11/20 16:15:23;;;;;;;6.10;3.30;;;11.60;99.90;;;;;;10335262;28;20387;-78
2023/11/20 16:20:45;;;;;;;3.40;2.60;;;11.60;99.90;;;;;;10306468;28;20345;-78
2023/11/20 16:26:06;;;;;;;3.20;1.87;;;11.60;99.90;;;;;;10327814;28;20238;-78
2023/11/20 16:31:28;;;;;;;2.10;1.90;;;11.50;99.90;;;;;;10350447;28;20260;-77
2023/11/20 16:36:48;;;;;;;2.40;1.90;;;11.50;99.90;;;;;;10338312;28;20253;-79
2023/11/20 16:42:09;;;;;;;1.67;1.57;;;11.50;99.90;;;;;;10343500;28;20223;-78
2023/11/20 16:47:31;;;;;;;2.73;1.73;;;11.50;99.90;;;;;;10335188;28;20199;-78
2023/11/20 16:52:51;;;;;;;2.20;1.70;;;11.50;99.90;;;;;;10342211;28;20187;-78
2023/11/20 16:58:12;;;;;;;2.37;1.70;;;11.40;99.90;;;;;;10340599;28;20219;-78
2023/11/20 17:03:34;;;;;;;1.67;1.57;;;11.40;99.90;;;;;;10325443;28;20254;-79
2023/11/20 17:08:55;;;;;;;1.70;1.60;;;11.30;99.90;;;;;;10338760;28;20215;-79
2023/11/20 17:14:16;;;;;;;2.30;2.07;;;11.30;99.90;;;;;;10334395;28;20208;-79
2023/11/20 17:19:38;;;;;;;2.40;2.10;;;11.30;99.90;;;;;;10327269;28;20227;-79
2023/11/20 17:24:59;;;;;;;2.87;2.00;;;11.30;99.90;;;;;;10334437;28;20207;-79
2023/11/20 17:30:20;;;;;;;2.93;2.53;;;11.30;99.90;;;;;;10341641;28;20218;-77
2023/11/20 17:35:42;;;;;;;3.97;2.53;;;11.30;99.90;;;;;;10332770;28;20580;-78
2023/11/20 17:41:03;;;;;;;3.77;2.90;;;11.40;99.90;;;;;;10328269;28;20223;-79
2023/11/20 17:46:24;;;;;;;3.17;2.40;;;11.40;99.90;;;;;;10331901;28;20270;-79
2023/11/20 17:51:47;;;;;;;3.03;2.33;;;11.50;99.90;;;;;;10341145;28;20317;-77
2023/11/20 17:56:49;;;;;;;3.10;1.90;;;11.50;99.90;;;;;;10326699;28;20553;-79
2023/11/20 18:01:52;;;;;;;3.97;2.57;;;11.60;99.90;;;;;;10313765;28;20593;-78
2023/11/20 18:06:55;;;;;;;4.97;2.70;;;11.70;99.90;;;;;;10328812;28;20214;-81
2023/11/20 18:11:58;;;;;;;4.90;2.50;;;11.70;99.90;;;;;;10333602;28;20227;-81
2023/11/20 18:17:00;;;;;;;3.27;2.90;;;11.70;99.90;;;;;;10329111;28;20199;-79
2023/11/20 18:22:05;;;;;;;3.40;3.10;;;11.60;99.90;;;;;;10337556;28;20638;-79
2023/11/20 18:27:07;;;;;;;5.10;3.00;;;11.50;99.90;;;;;;10339963;28;20892;-79
2023/11/20 18:32:09;;;;;;;4.53;3.70;;;11.50;99.90;;;;;;10333868;28;20239;-79
2023/11/20 18:37:15;;;;;;;6.50;2.27;;;11.40;99.90;;;;;;10300175;28;20206;-80
2023/11/20 18:42:17;;;;;;;2.80;2.60;;;11.40;99.90;;;;;;10333707;28;20216;-80
2023/11/20 18:47:19;;;;;;;5.70;3.10;;;11.40;99.90;;;;;;10334723;28;20195;-79
2023/11/20 18:52:23;;;;;;;3.10;2.80;;;11.40;99.90;;;;;;10334047;28;20222;-79
2023/11/20 18:57:26;;;;;;;5.90;2.30;;;11.50;99.90;;;;;;10329417;28;20669;-79
2023/11/20 19:02:28;;;;;;;5.67;3.70;;;11.40;99.90;;;;;;10332475;28;20192;-80
2023/11/20 19:07:33;;;;;;;2.70;2.50;;;11.40;99.90;;;;;;10330858;28;20203;-79
2023/11/20 19:12:40;;;;;;;3.77;2.13;;;11.50;99.90;;;;;;10326832;28;20294;-79
2023/11/20 19:17:42;;;;;;;4.30;2.20;;;11.50;99.90;;;;;;10329667;28;20226;-80
2023/11/20 19:22:46;;;;;;;5.93;2.43;;;11.50;99.90;;;;;;10338605;23;20604;-77
2023/11/20 19:27:50;;;;;;;5.70;3.00;;;11.50;99.90;;;;;;10321803;28;20211;-75
2023/11/20 19:32:53;;;;;;;7.33;4.00;;;11.50;99.90;;;;;;10329452;28;20223;-78
2023/11/20 19:37:56;;;;;;;6.87;4.30;;;11.60;99.90;;;;;;10328788;28;20203;-77
2023/11/20 19:42:59;;;;;;;5.10;3.50;;;11.60;99.90;;;;;;10327691;28;20296;-77
2023/11/20 19:48:02;;;;;;;6.17;3.33;;;11.60;99.90;;;;;;10330313;28;20203;-77
2023/11/20 19:53:06;;;;;;;4.40;2.30;;;11.50;99.90;;;;;;10329894;28;20222;-77
2023/11/20 19:58:09;;;;;;;4.47;2.70;;;11.50;99.90;;;;;;10327306;28;20253;-76
2023/11/20 20:03:11;;;;;;;4.97;3.63;;;11.40;99.90;;;;;;10327902;28;20191;-76
2023/11/20 20:08:15;;;;;;;5.27;2.97;;;11.30;99.90;;;;;;10334127;28;20199;-77
2023/11/20 20:13:20;;;;;;;10.53;3.37;;;11.30;99.90;;;;;;10335375;28;20281;-77
2023/11/20 20:18:22;;;;;;;3.23;2.90;;;11.20;99.90;;;;;;10334078;28;20204;-77
2023/11/20 20:23:29;;;;;;;8.00;3.53;;;11.20;99.90;;;;;;10333754;28;20222;-77
2023/11/20 20:28:32;;;;;;;5.07;3.57;;;11.20;99.90;;;;;;10333621;28;20277;-77
2023/11/20 20:33:35;;;;;;;4.87;3.10;;;11.20;99.90;;;;;;10340912;28;20679;-76
2023/11/20 20:38:38;;;;;;;6.30;4.00;;;11.20;99.90;;;;;;10315438;28;20230;-77
2023/11/20 20:43:41;;;;;;;7.60;3.50;;;11.10;99.90;;;;;;10320294;28;20272;-75
2023/11/20 20:48:43;;;;;;;8.43;3.73;;;11.10;99.90;;;;;;10330107;28;20230;-77
2023/11/20 20:53:47;;;;;;;4.17;3.77;;;11.00;99.90;;;;;;10335344;28;20883;-77
2023/11/20 20:58:50;;;;;;;4.20;3.80;;;10.90;99.90;;;;;;10332715;28;20219;-77
2023/11/20 21:03:52;;;;;;;5.47;4.60;;;10.90;99.90;;;;;;10296058;28;20673;-76
2023/11/20 21:08:58;;;;;;;7.33;6.83;;;10.70;99.90;;;;;;10323556;28;20692;-76
2023/11/20 21:14:00;;;;;;;9.10;7.70;;;10.60;99.90;;;;;;10311538;28;20890;-76
2023/11/20 21:19:03;;;;;;;8.97;8.30;;;10.50;99.90;;;;;;10327283;28;20230;-76
2023/11/20 21:24:09;;;;;;;8.90;8.13;;;10.30;99.90;;;;;;10331887;28;20199;-76
2023/11/20 21:29:12;;;;;;;8.67;8.17;;;10.20;99.90;;;;;;10336364;28;20234;-77
2023/11/20 21:34:15;;;;;;;14.83;10.00;;;10.10;99.90;;;;;;10332223;28;20208;-76
2023/11/20 21:39:19;;;;;;;10.47;9.10;;;10.10;99.90;;;;;;10331262;28;20277;-76
2023/11/20 21:44:21;;;;;;;13.20;11.90;;;10.00;99.90;;;;;;10334595;28;20260;-76
2023/11/20 21:49:24;;;;;;;10.00;8.97;;;10.00;99.90;;;;;;10326861;28;20244;-76
2023/11/20 21:54:27;;;;;;;13.33;11.23;;;9.90;99.90;;;;;;10308937;28;20207;-76
2023/11/20 21:59:30;;;;;;;10.70;9.67;;;9.90;99.90;;;;;;10329116;28;20215;-76
2023/11/20 22:04:32;;;;;;;10.57;9.60;;;9.90;99.90;;;;;;10326757;28;21025;-76
2023/11/20 22:09:36;;;;;;;11.00;10.33;;;9.90;99.90;;;;;;10330374;28;20241;-76
2023/11/20 22:14:38;;;;;;;10.77;9.87;;;9.90;99.90;;;;;;10329049;28;20245;-76
2023/11/20 22:19:41;;;;;;;12.17;10.97;;;10.00;99.90;;;;;;10329333;28;20238;-76
2023/11/20 22:24:45;;;;;;;13.87;10.87;;;10.00;99.90;;;;;;10326747;28;20210;-77
2023/11/20 22:29:48;;;;;;;10.87;10.13;;;10.10;99.90;;;;;;10335567;28;20219;-76
2023/11/20 22:34:50;;;;;;;12.03;11.03;;;10.10;99.90;;;;;;10334809;28;20222;-76
2023/11/20 22:39:54;;;;;;;12.27;11.20;;;10.10;99.90;;;;;;10327605;28;20215;-77
2023/11/20 22:44:56;;;;;;;17.50;15.40;;;10.10;99.90;;;;;;10309590;28;20207;-77
2023/11/20 22:49:59;;;;;;;10.67;9.87;;;10.10;99.90;;;;;;10331673;28;20289;-77
2023/11/20 22:55:03;;;;;;;10.97;10.10;;;10.00;99.90;;;;;;10331596;28;20629;-75
2023/11/20 23:00:08;;;;;;;10.50;9.63;;;9.90;99.90;;;;;;10331101;28;20238;-76
2023/11/20 23:05:10;;;;;;;10.73;9.53;;;9.80;99.90;;;;;;10329889;28;20270;-77
2023/11/20 23:10:14;;;;;;;10.33;9.37;;;9.70;99.90;;;;;;10329194;28;20231;-76
2023/11/20 23:15:17;;;;;;;17.80;14.30;;;9.60;99.90;;;;;;10328480;28;20195;-76
2023/11/20 23:20:20;;;;;;;9.90;9.33;;;9.60;99.90;;;;;;10328008;28;20227;-77
2023/11/20 23:25:23;;;;;;;9.33;8.60;;;9.50;99.90;;;;;;10326369;28;20622;-76
2023/11/20 23:30:26;;;;;;;11.10;9.50;;;9.50;99.90;;;;;;10366461;28;20280;-77
2023/11/20 23:35:28;;;;;;;9.97;8.97;;;9.40;99.90;;;;;;10341224;28;20207;-75
2023/11/20 23:40:32;;;;;;;9.20;8.50;;;9.40;99.90;;;;;;10339911;28;20584;-76
2023/11/20 23:45:34;;;;;;;13.60;9.80;;;9.40;99.90;;;;;;10322237;28;20202;-76
2023/11/20 23:50:37;;;;;;;11.80;8.10;;;9.40;99.90;;;;;;10339237;28;20660;-75
2023/11/20 23:55:41;;;;;;;8.63;7.93;;;9.50;99.90;;;;;;10338870;28;20665;-76
